Main page
METAR-TAF:

METAR-TAF

Airports :

Afonsos Air Force Base

Rio de Janeiro, Rio de Janeiro, Brazil

latitude: 22-52S, longitude: 043-22W, elevation: 34 m

Current weather observation

The report was made 5 hours and 34 minutes ago, at 02:00 UTC
Wind 2 kt from the West/Northwest
Temperature 23°C
Humidity 83%
Pressure 1014 hPa
Visibility 10 km or more
Few clouds at a height of 2500 ft

METAR: SBAF 190200Z 29002KT 9999 FEW025 23/20 Q1014

Time: 04:34 (07:34 UTC)

Forecast

The report was made 6 hours and 4 minutes ago, at 01:30 UTC
Forecast valid from 19 at 06 UTC to 19 at 18 UTC
Wind 7 kt from the West/Southwest
Visibility 10 km or more
Few clouds at a height of 3000 ft
Probability 40%
from 19 at 06 UTC to 19 at 10 UTC
Visibility: 2000 m
Scattered clouds at a height of 400 ft
mist

TAF: SBAF 190130Z 1906/1918 24007KT 9999 FEW030 TN22/1908Z TX31/1917Z PROB40 1906/1910 2000 BR SCT004 RMK PEB

Weather observations and forecasts of more than 4000 airports (METAR and TAF reports).

The available stations are represented by yellow and red dots on the map.

Hover mouse over dot to see the name of the station.

Then click to see weather observations and forecasts.

To change the map : click on the green buttons with a black cross to zoom in, on the green button with a dash to zoom out, or on the green arrows for adjacent maps.


METAR-TAF: